EIN990 EIDW-EGPK
Flight info
| Callsign | EIN990 |
|---|---|
| Flight time | 0h 49m |
| Altitude | 19000 |
| Route | ROTEV3J ROTEV P600 TRN |
| Aircraft | A333/H-SDE3GHIJ2J3J5M1RVWXY/LB2D1 |
Departure
| Time | 2026-04-26 17:45 |
|---|---|
| Airport | Dublin Airport (EIDW) |
Arrival
| Time | 2026-04-26 18:35 |
|---|---|
| Airport | Glasgow Prestwick Airport (EGPK) |
| Time | Latitude | Longitude | Altitude | Speed | Heading |
|---|---|---|---|---|---|
| 2026-04-26 17:24 | 53.42276 | -6.24639 | 215 ft | 0 kts | 155° |
| 2026-04-26 17:27 | 53.42288 | -6.24648 | 218 ft | 2 kts | 155° |
| 2026-04-26 17:27 | 53.42302 | -6.24659 | 221 ft | 2 kts | 155° |
| 2026-04-26 17:28 | 53.42317 | -6.24670 | 223 ft | 2 kts | 155° |
| 2026-04-26 17:28 | 53.42332 | -6.24681 | 219 ft | 2 kts | 155° |
| 2026-04-26 17:28 | 53.42346 | -6.24693 | 222 ft | 2 kts | 155° |
| 2026-04-26 17:28 | 53.42361 | -6.24704 | 218 ft | 2 kts | 155° |
| 2026-04-26 17:29 | 53.42376 | -6.24715 | 219 ft | 2 kts | 155° |
| 2026-04-26 17:29 | 53.42385 | -6.24723 | 216 ft | 2 kts | 155° |
| 2026-04-26 17:29 | 53.42405 | -6.24738 | 219 ft | 2 kts | 155° |
| 2026-04-26 17:29 | 53.42420 | -6.24749 | 219 ft | 2 kts | 155° |
| 2026-04-26 17:30 | 53.42434 | -6.24761 | 225 ft | 2 kts | 155° |
| 2026-04-26 17:30 | 53.42449 | -6.24772 | 220 ft | 2 kts | 160° |
| 2026-04-26 17:30 | 53.42464 | -6.24781 | 218 ft | 2 kts | 160° |
| 2026-04-26 17:30 | 53.42470 | -6.24785 | 218 ft | 0 kts | 157° |
| 2026-04-26 17:32 | 53.42437 | -6.24759 | 218 ft | 14 kts | 155° |
| 2026-04-26 17:32 | 53.42366 | -6.24785 | 223 ft | 9 kts | 236° |
| 2026-04-26 17:32 | 53.42401 | -6.24892 | 223 ft | 18 kts | 332° |
| 2026-04-26 17:32 | 53.42515 | -6.24973 | 222 ft | 18 kts | 336° |
| 2026-04-26 17:33 | 53.42628 | -6.25057 | 225 ft | 18 kts | 337° |
| 2026-04-26 17:33 | 53.42725 | -6.25131 | 216 ft | 3 kts | 312° |
| 2026-04-26 17:33 | 53.42736 | -6.25176 | 221 ft | 9 kts | 299° |
| 2026-04-26 17:34 | 53.42898 | -6.25322 | 220 ft | 13 kts | 333° |
| 2026-04-26 17:34 | 53.42999 | -6.25392 | 221 ft | 21 kts | 337° |
| 2026-04-26 17:34 | 53.43137 | -6.25490 | 224 ft | 22 kts | 337° |
| 2026-04-26 17:34 | 53.43276 | -6.25591 | 223 ft | 22 kts | 336° |
| 2026-04-26 17:35 | 53.43389 | -6.25616 | 225 ft | 13 kts | 51° |
| 2026-04-26 17:35 | 53.43399 | -6.25395 | 221 ft | 23 kts | 95° |
| 2026-04-26 17:35 | 53.43385 | -6.25129 | 221 ft | 23 kts | 95° |
| 2026-04-26 17:35 | 53.43370 | -6.24863 | 221 ft | 23 kts | 95° |
| 2026-04-26 17:36 | 53.43355 | -6.24612 | 217 ft | 15 kts | 96° |
| 2026-04-26 17:36 | 53.43345 | -6.24434 | 217 ft | 8 kts | 95° |
| 2026-04-26 17:36 | 53.43341 | -6.24360 | 221 ft | 6 kts | 95° |
| 2026-04-26 17:36 | 53.43339 | -6.24325 | 215 ft | 0 kts | 95° |
| 2026-04-26 17:43 | 53.43330 | -6.24161 | 308 ft | 21 kts | 95° |
| 2026-04-26 17:43 | 53.43322 | -6.24020 | 220 ft | 0 kts | 96° |
| 2026-04-26 17:44 | 53.43324 | -6.23905 | 219 ft | 8 kts | 63° |
| 2026-04-26 17:44 | 53.43416 | -6.23848 | 214 ft | 19 kts | 5° |
| 2026-04-26 17:44 | 53.43491 | -6.23976 | 222 ft | 21 kts | 278° |
| 2026-04-26 17:45 | 53.43524 | -6.24563 | 219 ft | 87 kts | 275° |
| 2026-04-26 17:45 | 53.43600 | -6.25979 | 239 ft | 152 kts | 273° |
| 2026-04-26 17:45 | 53.43697 | -6.27829 | 758 ft | 168 kts | 274° |
| 2026-04-26 17:45 | 53.43849 | -6.29907 | 1474 ft | 185 kts | 285° |
| 2026-04-26 17:46 | 53.44596 | -6.31526 | 2318 ft | 176 kts | 330° |
| 2026-04-26 17:46 | 53.45765 | -6.32126 | 2905 ft | 176 kts | 347° |
| 2026-04-26 17:46 | 53.46966 | -6.32530 | 3469 ft | 176 kts | 346° |
| 2026-04-26 17:46 | 53.48154 | -6.33004 | 4022 ft | 175 kts | 343° |
| 2026-04-26 17:47 | 53.49312 | -6.33545 | 4571 ft | 175 kts | 342° |
| 2026-04-26 17:47 | 53.50111 | -6.33950 | 4916 ft | 180 kts | 341° |
| 2026-04-26 17:47 | 53.51753 | -6.34835 | 5542 ft | 193 kts | 340° |
| 2026-04-26 17:47 | 53.53070 | -6.35569 | 6015 ft | 206 kts | 340° |
| 2026-04-26 17:48 | 53.54481 | -6.36326 | 6475 ft | 221 kts | 346° |
| 2026-04-26 17:48 | 53.56049 | -6.36548 | 6917 ft | 238 kts | 359° |
| 2026-04-26 17:48 | 53.57789 | -6.36433 | 7373 ft | 256 kts | 1° |
| 2026-04-26 17:48 | 53.59589 | -6.36261 | 7887 ft | 270 kts | 1° |
| 2026-04-26 17:49 | 53.61542 | -6.36078 | 8483 ft | 284 kts | 1° |
| 2026-04-26 17:49 | 53.63532 | -6.35903 | 9061 ft | 296 kts | 1° |
| 2026-04-26 17:49 | 53.65634 | -6.35722 | 9664 ft | 308 kts | 1° |
| 2026-04-26 17:49 | 53.67795 | -6.35163 | 10270 ft | 322 kts | 14° |
| 2026-04-26 17:50 | 53.69871 | -6.33580 | 10802 ft | 334 kts | 28° |
| 2026-04-26 17:50 | 53.71869 | -6.31454 | 11359 ft | 344 kts | 31° |
| 2026-04-26 17:50 | 53.73891 | -6.29203 | 11937 ft | 353 kts | 32° |
| 2026-04-26 17:50 | 53.76008 | -6.27047 | 12517 ft | 357 kts | 25° |
| 2026-04-26 17:51 | 53.78270 | -6.25229 | 13121 ft | 361 kts | 22° |
| 2026-04-26 17:51 | 53.80576 | -6.23489 | 13728 ft | 364 kts | 22° |
| 2026-04-26 17:51 | 53.82901 | -6.21747 | 14300 ft | 367 kts | 22° |
| 2026-04-26 17:51 | 53.85245 | -6.19987 | 14875 ft | 370 kts | 22° |
| 2026-04-26 17:52 | 53.87610 | -6.18205 | 15432 ft | 372 kts | 22° |
| 2026-04-26 17:52 | 53.89984 | -6.16414 | 15999 ft | 375 kts | 22° |
| 2026-04-26 17:52 | 53.92371 | -6.14609 | 16592 ft | 377 kts | 22° |
| 2026-04-26 17:52 | 53.94783 | -6.12784 | 17169 ft | 380 kts | 22° |
| 2026-04-26 17:53 | 53.97175 | -6.10970 | 17787 ft | 382 kts | 22° |
| 2026-04-26 17:53 | 53.99614 | -6.09118 | 18405 ft | 384 kts | 22° |
| 2026-04-26 17:53 | 54.02055 | -6.07262 | 18930 ft | 387 kts | 22° |
| 2026-04-26 17:54 | 54.07011 | -6.03335 | 19254 ft | 395 kts | 23° |
| 2026-04-26 17:54 | 54.09493 | -6.01301 | 19254 ft | 395 kts | 24° |
| 2026-04-26 17:54 | 54.11974 | -5.99251 | 19243 ft | 397 kts | 23° |
| 2026-04-26 17:54 | 54.14462 | -5.97195 | 19243 ft | 398 kts | 23° |
| 2026-04-26 17:55 | 54.16951 | -5.95140 | 19242 ft | 399 kts | 23° |
| 2026-04-26 17:55 | 54.19452 | -5.93079 | 19247 ft | 399 kts | 23° |
| 2026-04-26 17:55 | 54.21963 | -5.91010 | 19246 ft | 399 kts | 23° |
| 2026-04-26 17:55 | 54.24466 | -5.88947 | 19247 ft | 399 kts | 23° |
| 2026-04-26 17:56 | 54.26963 | -5.86888 | 19243 ft | 399 kts | 23° |
| 2026-04-26 17:56 | 54.31963 | -5.82757 | 19229 ft | 399 kts | 23° |
| 2026-04-26 17:57 | 54.36953 | -5.78623 | 19223 ft | 399 kts | 23° |
| 2026-04-26 17:57 | 54.39457 | -5.76546 | 19219 ft | 400 kts | 23° |
| 2026-04-26 17:57 | 54.41932 | -5.74489 | 19213 ft | 401 kts | 23° |
| 2026-04-26 17:57 | 54.44482 | -5.72365 | 19210 ft | 401 kts | 23° |
| 2026-04-26 17:58 | 54.52012 | -5.66078 | 19202 ft | 401 kts | 23° |
| 2026-04-26 17:59 | 54.57027 | -5.61877 | 19253 ft | 401 kts | 23° |
| 2026-04-26 17:59 | 54.59417 | -5.59454 | 19275 ft | 404 kts | 34° |
| 2026-04-26 17:59 | 54.61667 | -5.56513 | 19255 ft | 406 kts | 36° |
| 2026-04-26 17:59 | 54.63846 | -5.53406 | 19264 ft | 406 kts | 38° |
| 2026-04-26 18:00 | 54.65977 | -5.50211 | 19260 ft | 406 kts | 39° |
| 2026-04-26 18:00 | 54.68090 | -5.46969 | 19258 ft | 406 kts | 39° |
| 2026-04-26 18:00 | 54.70196 | -5.43715 | 19256 ft | 406 kts | 39° |
| 2026-04-26 18:00 | 54.72310 | -5.40455 | 19256 ft | 404 kts | 39° |
| 2026-04-26 18:01 | 54.74362 | -5.37295 | 19322 ft | 386 kts | 39° |
| 2026-04-26 18:01 | 54.76332 | -5.34267 | 19256 ft | 372 kts | 39° |
| 2026-04-26 18:01 | 54.78255 | -5.31321 | 18982 ft | 367 kts | 39° |
| 2026-04-26 18:01 | 54.80164 | -5.28404 | 18668 ft | 366 kts | 39° |
| 2026-04-26 18:02 | 54.82071 | -5.25494 | 18325 ft | 365 kts | 39° |
| 2026-04-26 18:02 | 54.83337 | -5.23560 | 18113 ft | 365 kts | 39° |
| 2026-04-26 18:02 | 54.85879 | -5.19670 | 17641 ft | 363 kts | 39° |
| 2026-04-26 18:02 | 54.87826 | -5.16895 | 17297 ft | 359 kts | 32° |
| 2026-04-26 18:03 | 54.89937 | -5.14639 | 16969 ft | 355 kts | 27° |
| 2026-04-26 18:03 | 54.92099 | -5.12577 | 16644 ft | 353 kts | 25° |
| 2026-04-26 18:03 | 54.94282 | -5.10632 | 16303 ft | 352 kts | 23° |
| 2026-04-26 18:03 | 54.96472 | -5.08748 | 15975 ft | 350 kts | 23° |
| 2026-04-26 18:04 | 54.98655 | -5.06893 | 15656 ft | 348 kts | 23° |
| 2026-04-26 18:04 | 55.00826 | -5.05048 | 15329 ft | 346 kts | 23° |
| 2026-04-26 18:04 | 55.02944 | -5.03236 | 14981 ft | 342 kts | 23° |
| 2026-04-26 18:05 | 55.07211 | -4.99548 | 14210 ft | 338 kts | 24° |
| 2026-04-26 18:05 | 55.09284 | -4.97745 | 13813 ft | 336 kts | 24° |
| 2026-04-26 18:05 | 55.11388 | -4.95909 | 13447 ft | 332 kts | 24° |
| 2026-04-26 18:05 | 55.13410 | -4.94141 | 13139 ft | 326 kts | 24° |
| 2026-04-26 18:06 | 55.15425 | -4.92376 | 12822 ft | 321 kts | 24° |
| 2026-04-26 18:06 | 55.17414 | -4.90633 | 12523 ft | 317 kts | 24° |
| 2026-04-26 18:06 | 55.19378 | -4.88911 | 12224 ft | 313 kts | 24° |
| 2026-04-26 18:06 | 55.21317 | -4.87210 | 11906 ft | 310 kts | 24° |
| 2026-04-26 18:07 | 55.23234 | -4.85527 | 11625 ft | 306 kts | 24° |
| 2026-04-26 18:07 | 55.25127 | -4.83863 | 11328 ft | 303 kts | 24° |
| 2026-04-26 18:07 | 55.27017 | -4.82267 | 11022 ft | 299 kts | 19° |
| 2026-04-26 18:07 | 55.28319 | -4.81558 | 10826 ft | 295 kts | 9° |
| 2026-04-26 18:08 | 55.31001 | -4.81494 | 10441 ft | 285 kts | 345° |
| 2026-04-26 18:08 | 55.32807 | -4.82763 | 10152 ft | 277 kts | 324° |
| 2026-04-26 18:08 | 55.34195 | -4.84962 | 9819 ft | 270 kts | 304° |
| 2026-04-26 18:08 | 55.35062 | -4.87824 | 9529 ft | 264 kts | 285° |
| 2026-04-26 18:09 | 55.35334 | -4.90986 | 9213 ft | 261 kts | 267° |
| 2026-04-26 18:09 | 55.35012 | -4.94102 | 8890 ft | 259 kts | 250° |
| 2026-04-26 18:09 | 55.34146 | -4.96869 | 8588 ft | 259 kts | 232° |
| 2026-04-26 18:09 | 55.32828 | -4.99010 | 8315 ft | 259 kts | 214° |
| 2026-04-26 18:10 | 55.31185 | -5.00301 | 8250 ft | 262 kts | 197° |
| 2026-04-26 18:10 | 55.29363 | -5.00712 | 8249 ft | 266 kts | 185° |
| 2026-04-26 18:10 | 55.27506 | -5.00695 | 8245 ft | 267 kts | 180° |
| 2026-04-26 18:10 | 55.25648 | -5.00485 | 8246 ft | 268 kts | 178° |
| 2026-04-26 18:11 | 55.23787 | -5.00199 | 8245 ft | 268 kts | 178° |
| 2026-04-26 18:11 | 55.21925 | -4.99906 | 8248 ft | 268 kts | 178° |
| 2026-04-26 18:11 | 55.20072 | -4.99636 | 8245 ft | 268 kts | 178° |
| 2026-04-26 18:11 | 55.18206 | -4.99392 | 8246 ft | 268 kts | 179° |
| 2026-04-26 18:12 | 55.16347 | -4.99171 | 8248 ft | 268 kts | 179° |
| 2026-04-26 18:12 | 55.14477 | -4.98966 | 8246 ft | 268 kts | 179° |
| 2026-04-26 18:12 | 55.12609 | -4.98768 | 8244 ft | 269 kts | 178° |
| 2026-04-26 18:12 | 55.10753 | -4.98578 | 8245 ft | 269 kts | 180° |
| 2026-04-26 18:13 | 55.08885 | -4.98807 | 8243 ft | 266 kts | 193° |
| 2026-04-26 18:13 | 55.07131 | -4.99776 | 8247 ft | 264 kts | 205° |
| 2026-04-26 18:13 | 55.05455 | -5.01109 | 8247 ft | 264 kts | 207° |
| 2026-04-26 18:13 | 55.04919 | -5.01560 | 8247 ft | 264 kts | 207° |
| 2026-04-26 18:14 | 55.02159 | -5.03932 | 8246 ft | 264 kts | 208° |
| 2026-04-26 18:14 | 55.00531 | -5.05340 | 8246 ft | 264 kts | 208° |
| 2026-04-26 18:14 | 54.98885 | -5.06767 | 8246 ft | 264 kts | 208° |
| 2026-04-26 18:14 | 54.97239 | -5.08193 | 8248 ft | 264 kts | 208° |
| 2026-04-26 18:15 | 54.95567 | -5.09638 | 8251 ft | 264 kts | 208° |
| 2026-04-26 18:15 | 54.93924 | -5.11057 | 8243 ft | 264 kts | 208° |
| 2026-04-26 18:15 | 54.92245 | -5.12377 | 8244 ft | 265 kts | 201° |
| 2026-04-26 18:15 | 54.90472 | -5.13113 | 8246 ft | 267 kts | 188° |
| 2026-04-26 18:16 | 54.88586 | -5.13030 | 8240 ft | 269 kts | 172° |
| 2026-04-26 18:16 | 54.85189 | -5.10306 | 8246 ft | 275 kts | 141° |
| 2026-04-26 18:16 | 54.83911 | -5.07836 | 8242 ft | 277 kts | 125° |
| 2026-04-26 18:17 | 54.83065 | -5.04886 | 8244 ft | 278 kts | 109° |
| 2026-04-26 18:17 | 54.82700 | -5.01591 | 8244 ft | 279 kts | 93° |
| 2026-04-26 18:17 | 54.82862 | -4.98241 | 8241 ft | 279 kts | 77° |
| 2026-04-26 18:17 | 54.83541 | -4.95091 | 8237 ft | 279 kts | 60° |
| 2026-04-26 18:18 | 54.84677 | -4.92388 | 8238 ft | 278 kts | 44° |
| 2026-04-26 18:18 | 54.86180 | -4.90325 | 8241 ft | 276 kts | 28° |
| 2026-04-26 18:18 | 54.87940 | -4.89037 | 8230 ft | 274 kts | 12° |
| 2026-04-26 18:18 | 54.89819 | -4.88611 | 8238 ft | 273 kts | 357° |
| 2026-04-26 18:19 | 54.91070 | -4.88813 | 8245 ft | 271 kts | 347° |
| 2026-04-26 18:19 | 54.92849 | -4.89818 | 8238 ft | 269 kts | 332° |
| 2026-04-26 18:19 | 54.94406 | -4.91588 | 8240 ft | 266 kts | 317° |
| 2026-04-26 18:19 | 54.95958 | -4.94825 | 8242 ft | 263 kts | 302° |
| 2026-04-26 18:20 | 54.96645 | -4.96617 | 8241 ft | 263 kts | 303° |
| 2026-04-26 18:20 | 54.97818 | -4.99028 | 8241 ft | 265 kts | 315° |
| 2026-04-26 18:20 | 54.99324 | -5.00894 | 8241 ft | 267 kts | 331° |
| 2026-04-26 18:20 | 55.00486 | -5.01721 | 8239 ft | 266 kts | 342° |
| 2026-04-26 18:21 | 55.02840 | -5.02208 | 8245 ft | 252 kts | 2° |
| 2026-04-26 18:21 | 55.04556 | -5.01671 | 8246 ft | 251 kts | 16° |
| 2026-04-26 18:21 | 55.06177 | -5.00507 | 8239 ft | 253 kts | 24° |
| 2026-04-26 18:21 | 55.07757 | -4.99136 | 8240 ft | 254 kts | 25° |
| 2026-04-26 18:22 | 55.09337 | -4.97734 | 8238 ft | 254 kts | 25° |
| 2026-04-26 18:22 | 55.10911 | -4.96342 | 8237 ft | 254 kts | 25° |
| 2026-04-26 18:22 | 55.12488 | -4.94953 | 8237 ft | 254 kts | 25° |
| 2026-04-26 18:22 | 55.14066 | -4.93568 | 8235 ft | 254 kts | 25° |
| 2026-04-26 18:23 | 55.15649 | -4.92180 | 8236 ft | 256 kts | 25° |
| 2026-04-26 18:23 | 55.17243 | -4.90784 | 8036 ft | 257 kts | 25° |
| 2026-04-26 18:23 | 55.18846 | -4.89379 | 7736 ft | 257 kts | 25° |
| 2026-04-26 18:23 | 55.20444 | -4.87976 | 7439 ft | 258 kts | 25° |
| 2026-04-26 18:24 | 55.22032 | -4.86582 | 7136 ft | 258 kts | 25° |
| 2026-04-26 18:24 | 55.23661 | -4.85151 | 6842 ft | 258 kts | 25° |
| 2026-04-26 18:24 | 55.25248 | -4.83757 | 6564 ft | 257 kts | 25° |
| 2026-04-26 18:24 | 55.26846 | -4.82350 | 6281 ft | 256 kts | 25° |
| 2026-04-26 18:25 | 55.28432 | -4.80953 | 6009 ft | 254 kts | 25° |
| 2026-04-26 18:25 | 55.30009 | -4.79551 | 5755 ft | 252 kts | 27° |
| 2026-04-26 18:25 | 55.31357 | -4.77663 | 5569 ft | 248 kts | 53° |
| 2026-04-26 18:25 | 55.32159 | -4.75025 | 5402 ft | 244 kts | 67° |
| 2026-04-26 18:26 | 55.32786 | -4.72252 | 5225 ft | 244 kts | 69° |
| 2026-04-26 18:26 | 55.33395 | -4.69463 | 5052 ft | 244 kts | 69° |
| 2026-04-26 18:26 | 55.34004 | -4.66692 | 4823 ft | 243 kts | 68° |
| 2026-04-26 18:26 | 55.34615 | -4.63930 | 4639 ft | 241 kts | 68° |
| 2026-04-26 18:27 | 55.35219 | -4.61225 | 4441 ft | 240 kts | 68° |
| 2026-04-26 18:27 | 55.35829 | -4.58494 | 4272 ft | 240 kts | 68° |
| 2026-04-26 18:27 | 55.36436 | -4.55777 | 4090 ft | 239 kts | 68° |
| 2026-04-26 18:27 | 55.37043 | -4.53060 | 3909 ft | 238 kts | 68° |
| 2026-04-26 18:28 | 55.37648 | -4.50353 | 3733 ft | 237 kts | 68° |
| 2026-04-26 18:28 | 55.38248 | -4.47664 | 3571 ft | 236 kts | 68° |
| 2026-04-26 18:28 | 55.38844 | -4.44987 | 3383 ft | 235 kts | 68° |
| 2026-04-26 18:28 | 55.39440 | -4.42306 | 3201 ft | 234 kts | 69° |
| 2026-04-26 18:29 | 55.39972 | -4.39914 | 3050 ft | 234 kts | 69° |
| 2026-04-26 18:29 | 55.40579 | -4.37188 | 2863 ft | 233 kts | 69° |
| 2026-04-26 18:29 | 55.41165 | -4.34547 | 2699 ft | 232 kts | 69° |
| 2026-04-26 18:29 | 55.41838 | -4.31979 | 2550 ft | 232 kts | 53° |
| 2026-04-26 18:30 | 55.43137 | -4.30403 | 2441 ft | 228 kts | 12° |
| 2026-04-26 18:30 | 55.44675 | -4.30647 | 2312 ft | 225 kts | 332° |
| 2026-04-26 18:30 | 55.45726 | -4.32535 | 2243 ft | 218 kts | 291° |
| 2026-04-26 18:30 | 55.45792 | -4.35017 | 2235 ft | 198 kts | 249° |
| 2026-04-26 18:31 | 55.44924 | -4.36647 | 2229 ft | 177 kts | 202° |
| 2026-04-26 18:31 | 55.43912 | -4.37604 | 2171 ft | 158 kts | 232° |
| 2026-04-26 18:31 | 55.43748 | -4.39297 | 2180 ft | 138 kts | 293° |
| 2026-04-26 18:31 | 55.44280 | -4.40715 | 2256 ft | 143 kts | 307° |
| 2026-04-26 18:32 | 55.44893 | -4.42131 | 2226 ft | 146 kts | 304° |
| 2026-04-26 18:32 | 55.45460 | -4.43620 | 2193 ft | 147 kts | 301° |
| 2026-04-26 18:32 | 55.46001 | -4.45156 | 2018 ft | 147 kts | 301° |
| 2026-04-26 18:32 | 55.46528 | -4.46688 | 1756 ft | 146 kts | 301° |
| 2026-04-26 18:33 | 55.47056 | -4.48211 | 1520 ft | 145 kts | 302° |
| 2026-04-26 18:33 | 55.47580 | -4.49727 | 1291 ft | 145 kts | 302° |
| 2026-04-26 18:33 | 55.48081 | -4.51174 | 1070 ft | 145 kts | 303° |
| 2026-04-26 18:33 | 55.48601 | -4.52676 | 833 ft | 146 kts | 303° |
| 2026-04-26 18:34 | 55.49127 | -4.54201 | 624 ft | 145 kts | 303° |
| 2026-04-26 18:34 | 55.49643 | -4.55699 | 387 ft | 140 kts | 304° |
| 2026-04-26 18:34 | 55.50139 | -4.57134 | 182 ft | 134 kts | 304° |
| 2026-04-26 18:34 | 55.50615 | -4.58511 | 64 ft | 124 kts | 302° |
| 2026-04-26 18:35 | 55.50972 | -4.59549 | 55 ft | 64 kts | 301° |
| 2026-04-26 18:35 | 55.51158 | -4.60087 | 48 ft | 33 kts | 301° |
| 2026-04-26 18:35 | 55.51236 | -4.60312 | 51 ft | 18 kts | 301° |
| 2026-04-26 18:35 | 55.51300 | -4.60499 | 48 ft | 18 kts | 301° |
| 2026-04-26 18:36 | 55.51341 | -4.60716 | 49 ft | 19 kts | 274° |
| 2026-04-26 18:36 | 55.51329 | -4.60918 | 48 ft | 8 kts | 260° |
| 2026-04-26 18:36 | 55.51323 | -4.60965 | 48 ft | 4 kts | 252° |
| 2026-04-26 18:36 | 55.51283 | -4.60999 | 49 ft | 5 kts | 172° |
| 2026-04-26 18:37 | 55.51243 | -4.60919 | 51 ft | 12 kts | 120° |
| 2026-04-26 18:37 | 55.51198 | -4.60788 | 48 ft | 13 kts | 122° |
| 2026-04-26 18:37 | 55.51150 | -4.60652 | 50 ft | 14 kts | 122° |
| 2026-04-26 18:37 | 55.51097 | -4.60496 | 49 ft | 20 kts | 121° |
| 2026-04-26 18:38 | 55.51006 | -4.60228 | 47 ft | 27 kts | 121° |
| 2026-04-26 18:38 | 55.50909 | -4.59950 | 48 ft | 25 kts | 121° |
| 2026-04-26 18:38 | 55.50822 | -4.59700 | 50 ft | 22 kts | 122° |
| 2026-04-26 18:38 | 55.50739 | -4.59461 | 48 ft | 24 kts | 121° |
| 2026-04-26 18:39 | 55.50657 | -4.59224 | 51 ft | 21 kts | 121° |
| 2026-04-26 18:39 | 55.50583 | -4.59009 | 52 ft | 20 kts | 119° |
| 2026-04-26 18:39 | 55.50529 | -4.58803 | 59 ft | 16 kts | 114° |
| 2026-04-26 18:39 | 55.50476 | -4.58628 | 62 ft | 17 kts | 122° |
| 2026-04-26 18:40 | 55.50417 | -4.58461 | 66 ft | 15 kts | 122° |
| 2026-04-26 18:40 | 55.50361 | -4.58298 | 62 ft | 16 kts | 121° |
| 2026-04-26 18:40 | 55.50312 | -4.58156 | 69 ft | 11 kts | 120° |
| 2026-04-26 18:40 | 55.50270 | -4.58037 | 62 ft | 13 kts | 121° |
| 2026-04-26 18:41 | 55.50239 | -4.57946 | 63 ft | 5 kts | 121° |
| 2026-04-26 18:41 | 55.50220 | -4.57889 | 63 ft | 5 kts | 121° |
| 2026-04-26 18:41 | 55.50219 | -4.57888 | 63 ft | 0 kts | 121° |
| 2026-04-26 18:44 | 55.50186 | -4.57747 | 68 ft | 12 kts | 85° |
| 2026-04-26 18:45 | 55.50274 | -4.57647 | 65 ft | 17 kts | 358° |
| 2026-04-26 18:45 | 55.50390 | -4.57832 | 66 ft | 26 kts | 297° |
| 2026-04-26 18:45 | 55.50589 | -4.58432 | 64 ft | 95 kts | 301° |
| 2026-04-26 18:45 | 55.51048 | -4.59781 | 210 ft | 150 kts | 303° |
| 2026-04-26 18:46 | 55.51638 | -4.61649 | 344 ft | 202 kts | 304° |
| 2026-04-26 18:46 | 55.52392 | -4.63812 | 1282 ft | 206 kts | 302° |
| 2026-04-26 18:46 | 55.53015 | -4.66093 | 2473 ft | 199 kts | 285° |
| 2026-04-26 18:46 | 55.53155 | -4.68475 | 3073 ft | 205 kts | 262° |
| 2026-04-26 18:47 | 55.52664 | -4.70946 | 3200 ft | 221 kts | 234° |
| 2026-04-26 18:47 | 55.51614 | -4.72941 | 3219 ft | 223 kts | 221° |
| 2026-04-26 18:47 | 55.50429 | -4.74718 | 3220 ft | 224 kts | 219° |
| 2026-04-26 18:47 | 55.49423 | -4.76792 | 3212 ft | 225 kts | 247° |
| 2026-04-26 18:48 | 55.49346 | -4.79499 | 3243 ft | 226 kts | 287° |
| 2026-04-26 18:48 | 55.50276 | -4.81710 | 3065 ft | 230 kts | 326° |
| 2026-04-26 18:48 | 55.51804 | -4.82447 | 2780 ft | 231 kts | 359° |
| 2026-04-26 18:48 | 55.53415 | -4.82396 | 2461 ft | 232 kts | 0° |
| 2026-04-26 18:49 | 55.55027 | -4.82513 | 2242 ft | 230 kts | 356° |
| 2026-04-26 18:49 | 55.56597 | -4.82336 | 2209 ft | 226 kts | 22° |
| 2026-04-26 18:49 | 55.57746 | -4.80600 | 2210 ft | 216 kts | 64° |
| 2026-04-26 18:49 | 55.57924 | -4.78144 | 2216 ft | 197 kts | 108° |
| 2026-04-26 18:50 | 55.57186 | -4.76237 | 2146 ft | 186 kts | 133° |
| 2026-04-26 18:50 | 55.56309 | -4.74549 | 1897 ft | 186 kts | 129° |
| 2026-04-26 18:50 | 55.55543 | -4.72753 | 1639 ft | 179 kts | 122° |
| 2026-04-26 18:50 | 55.54905 | -4.70915 | 1387 ft | 173 kts | 119° |
| 2026-04-26 18:51 | 55.54284 | -4.69112 | 1137 ft | 172 kts | 120° |
| 2026-04-26 18:51 | 55.53653 | -4.67294 | 994 ft | 173 kts | 120° |
| 2026-04-26 18:51 | 55.53034 | -4.65509 | 772 ft | 173 kts | 119° |
| 2026-04-26 18:51 | 55.52410 | -4.63708 | 523 ft | 171 kts | 119° |
| 2026-04-26 18:52 | 55.51785 | -4.61899 | 407 ft | 175 kts | 119° |
| 2026-04-26 18:52 | 55.51120 | -4.59977 | 657 ft | 192 kts | 119° |
| 2026-04-26 18:52 | 55.50403 | -4.57920 | 958 ft | 199 kts | 121° |
| 2026-04-26 18:52 | 55.49531 | -4.56021 | 1184 ft | 200 kts | 135° |
| 2026-04-26 18:53 | 55.48433 | -4.54519 | 1213 ft | 200 kts | 148° |
| 2026-04-26 18:53 | 55.47157 | -4.53519 | 1214 ft | 202 kts | 162° |
| 2026-04-26 18:53 | 55.45763 | -4.53081 | 1215 ft | 205 kts | 175° |
| 2026-04-26 18:53 | 55.44343 | -4.53230 | 1211 ft | 206 kts | 189° |
| 2026-04-26 18:54 | 55.42971 | -4.53965 | 1208 ft | 205 kts | 204° |
| 2026-04-26 18:54 | 55.41778 | -4.55183 | 1208 ft | 192 kts | 215° |
| 2026-04-26 18:54 | 55.40742 | -4.56582 | 1212 ft | 185 kts | 219° |
| 2026-04-26 18:54 | 55.39783 | -4.58072 | 1215 ft | 184 kts | 224° |
| 2026-04-26 18:55 | 55.38949 | -4.59781 | 1197 ft | 184 kts | 244° |
| 2026-04-26 18:55 | 55.38771 | -4.61951 | 1212 ft | 182 kts | 284° |
| 2026-04-26 18:55 | 55.39374 | -4.63869 | 1221 ft | 182 kts | 311° |
| 2026-04-26 18:55 | 55.40292 | -4.65416 | 1213 ft | 184 kts | 323° |
| 2026-04-26 18:56 | 55.41344 | -4.66707 | 1212 ft | 184 kts | 327° |
| 2026-04-26 18:56 | 55.42420 | -4.67932 | 1211 ft | 184 kts | 328° |
| 2026-04-26 18:56 | 55.43515 | -4.69104 | 1199 ft | 184 kts | 338° |
| 2026-04-26 18:56 | 55.44737 | -4.69636 | 1171 ft | 178 kts | 354° |
| 2026-04-26 18:57 | 55.45922 | -4.69841 | 1132 ft | 164 kts | 359° |
| 2026-04-26 18:57 | 55.46287 | -4.69872 | 1114 ft | 159 kts | 360° |
| 2026-04-26 18:57 | 55.48021 | -4.69904 | 824 ft | 139 kts | 7° |
| 2026-04-26 18:57 | 55.48967 | -4.69703 | 660 ft | 135 kts | 11° |
| 2026-04-26 18:58 | 55.49879 | -4.69401 | 660 ft | 132 kts | 20° |
| 2026-04-26 18:58 | 55.50441 | -4.68996 | 655 ft | 131 kts | 27° |
| 2026-04-26 18:58 | 55.51187 | -4.68094 | 651 ft | 132 kts | 49° |
| 2026-04-26 18:58 | 55.51841 | -4.66294 | 584 ft | 132 kts | 64° |
| 2026-04-26 18:59 | 55.52050 | -4.65267 | 521 ft | 132 kts | 75° |
| 2026-04-26 18:59 | 55.52085 | -4.63664 | 429 ft | 132 kts | 96° |
| 2026-04-26 18:59 | 55.51768 | -4.62150 | 418 ft | 135 kts | 115° |
| 2026-04-26 18:59 | 55.51293 | -4.60681 | 779 ft | 137 kts | 117° |
| 2026-04-26 19:00 | 55.50808 | -4.59233 | 1281 ft | 137 kts | 118° |
| 2026-04-26 19:00 | 55.50321 | -4.57736 | 1650 ft | 148 kts | 118° |
| 2026-04-26 19:00 | 55.49779 | -4.56003 | 1809 ft | 174 kts | 118° |
| 2026-04-26 19:00 | 55.49167 | -4.54001 | 1879 ft | 191 kts | 118° |
| 2026-04-26 19:01 | 55.48536 | -4.51960 | 1873 ft | 187 kts | 118° |
| 2026-04-26 19:01 | 55.48193 | -4.49850 | 1870 ft | 182 kts | 88° |
| 2026-04-26 19:01 | 55.48675 | -4.47823 | 1869 ft | 185 kts | 48° |
| 2026-04-26 19:01 | 55.49809 | -4.46783 | 1871 ft | 189 kts | 10° |
| 2026-04-26 19:02 | 55.51089 | -4.47227 | 1874 ft | 192 kts | 331° |
| 2026-04-26 19:02 | 55.52020 | -4.48923 | 1883 ft | 195 kts | 304° |
| 2026-04-26 19:02 | 55.52704 | -4.51002 | 1901 ft | 195 kts | 299° |
| 2026-04-26 19:02 | 55.53136 | -4.52404 | 1908 ft | 195 kts | 299° |
| 2026-04-26 19:03 | 55.53993 | -4.55239 | 1907 ft | 197 kts | 299° |
| 2026-04-26 19:03 | 55.54640 | -4.57377 | 1908 ft | 198 kts | 299° |
| 2026-04-26 19:03 | 55.55289 | -4.59519 | 1914 ft | 197 kts | 298° |
| 2026-04-26 19:03 | 55.55932 | -4.61625 | 1932 ft | 197 kts | 298° |
| 2026-04-26 19:04 | 55.56594 | -4.63772 | 1929 ft | 197 kts | 299° |
| 2026-04-26 19:04 | 55.57241 | -4.65889 | 1943 ft | 195 kts | 298° |
| 2026-04-26 19:04 | 55.57883 | -4.67982 | 1835 ft | 197 kts | 299° |
| 2026-04-26 19:04 | 55.58521 | -4.70163 | 1676 ft | 195 kts | 295° |
| 2026-04-26 19:05 | 55.58053 | -4.74244 | 1342 ft | 170 kts | 214° |
| 2026-04-26 19:05 | 55.57004 | -4.74760 | 1218 ft | 152 kts | 169° |
| 2026-04-26 19:05 | 55.56098 | -4.74112 | 1207 ft | 135 kts | 140° |
| 2026-04-26 19:06 | 55.55487 | -4.72872 | 1227 ft | 135 kts | 122° |
| 2026-04-26 19:06 | 55.54987 | -4.71447 | 1190 ft | 137 kts | 119° |
| 2026-04-26 19:06 | 55.54501 | -4.69996 | 1058 ft | 137 kts | 118° |
| 2026-04-26 19:06 | 55.54014 | -4.68548 | 909 ft | 137 kts | 118° |
| 2026-04-26 19:07 | 55.53520 | -4.67107 | 775 ft | 137 kts | 118° |
| 2026-04-26 19:07 | 55.53046 | -4.65638 | 665 ft | 138 kts | 116° |
| 2026-04-26 19:07 | 55.52565 | -4.64176 | 513 ft | 137 kts | 118° |
| 2026-04-26 19:07 | 55.52063 | -4.62742 | 313 ft | 137 kts | 118° |
| 2026-04-26 19:08 | 55.51583 | -4.61311 | 212 ft | 137 kts | 118° |
| 2026-04-26 19:08 | 55.51092 | -4.59903 | 103 ft | 132 kts | 118° |
| 2026-04-26 19:08 | 55.50656 | -4.58638 | 59 ft | 87 kts | 121° |
| 2026-04-26 19:08 | 55.50473 | -4.58110 | 67 ft | 26 kts | 121° |
| 2026-04-26 19:09 | 55.50396 | -4.57911 | 66 ft | 5 kts | 159° |
| 2026-04-26 19:09 | 55.50336 | -4.57921 | 69 ft | 13 kts | 194° |
| 2026-04-26 19:09 | 55.50280 | -4.58015 | 62 ft | 10 kts | 257° |
| 2026-04-26 19:09 | 55.50310 | -4.58153 | 65 ft | 16 kts | 302° |
| 2026-04-26 19:10 | 55.50387 | -4.58371 | 63 ft | 20 kts | 302° |
| 2026-04-26 19:10 | 55.50460 | -4.58582 | 60 ft | 26 kts | 302° |
| 2026-04-26 19:10 | 55.50553 | -4.58903 | 55 ft | 30 kts | 294° |
| 2026-04-26 19:10 | 55.50664 | -4.59245 | 54 ft | 32 kts | 301° |
| 2026-04-26 19:11 | 55.50774 | -4.59562 | 50 ft | 28 kts | 302° |
| 2026-04-26 19:11 | 55.50875 | -4.59851 | 48 ft | 29 kts | 301° |
| 2026-04-26 19:11 | 55.50981 | -4.60159 | 49 ft | 24 kts | 300° |
| 2026-04-26 19:11 | 55.51064 | -4.60402 | 48 ft | 23 kts | 301° |
| 2026-04-26 19:12 | 55.51149 | -4.60647 | 48 ft | 23 kts | 301° |
| 2026-04-26 19:12 | 55.51213 | -4.60832 | 48 ft | 17 kts | 301° |
| 2026-04-26 19:12 | 55.51277 | -4.61019 | 47 ft | 18 kts | 301° |
| 2026-04-26 19:12 | 55.51346 | -4.61218 | 46 ft | 21 kts | 302° |
| 2026-04-26 19:13 | 55.51418 | -4.61420 | 48 ft | 13 kts | 311° |
| 2026-04-26 19:13 | 55.51482 | -4.61499 | 51 ft | 10 kts | 334° |
| 2026-04-26 19:13 | 55.51522 | -4.61524 | 49 ft | 0 kts | 346° |